createdAt,value
2023-01-29T00:00:48.539Z,16.63
2023-01-29T00:04:58.690Z,17.63
2023-01-29T00:09:04.458Z,19.30
2023-01-29T00:13:09.922Z,21.20
2023-01-29T00:17:15.439Z,15.13
2023-01-29T00:21:22.821Z,16.60
2023-01-29T00:25:28.304Z,21.40
2023-01-29T00:29:33.760Z,23.07
2023-01-29T00:33:39.735Z,18.20
2023-01-29T00:37:45.310Z,16.83
2023-01-29T00:42:09.130Z,22.97
2023-01-29T00:46:14.726Z,14.63
2023-01-29T00:50:20.378Z,18.67
2023-01-29T00:54:25.795Z,13.20
2023-01-29T00:58:34.466Z,15.17
2023-01-29T01:02:58.343Z,19.60
2023-01-29T01:07:03.838Z,14.73
2023-01-29T01:11:09.334Z,11.37
2023-01-29T01:15:14.843Z,15.17
2023-01-29T01:19:20.309Z,14.23
2023-01-29T01:23:26.195Z,11.50
2023-01-29T01:27:32.148Z,12.93
2023-01-29T01:31:37.619Z,13.40
2023-01-29T01:35:43.224Z,12.17
2023-01-29T01:39:49.079Z,14.67
2023-01-29T01:44:01.391Z,13.80
2023-01-29T01:48:20.042Z,13.87
2023-01-29T01:52:25.675Z,11.83
2023-01-29T01:56:45.593Z,13.30
2023-01-29T02:00:51.419Z,12.60
2023-01-29T02:05:15.691Z,14.93
2023-01-29T02:09:36.470Z,12.40
2023-01-29T02:13:42.774Z,17.07
2023-01-29T02:17:48.452Z,11.23
2023-01-29T02:22:40.645Z,13.70
2023-01-29T02:27:14.027Z,17.33
2023-01-29T02:31:41.550Z,12.07
2023-01-29T02:35:54.426Z,11.63
2023-01-29T02:40:14.642Z,16.17
2023-01-29T02:44:44.535Z,13.83
2023-01-29T02:49:10.858Z,18.33
2023-01-29T02:53:38.253Z,12.17
2023-01-29T02:57:46.588Z,12.40
2023-01-29T03:02:04.118Z,11.70
2023-01-29T03:06:28.280Z,11.57
2023-01-29T03:10:57.795Z,12.60
2023-01-29T03:15:16.940Z,15.63
2023-01-29T03:19:41.347Z,18.43
2023-01-29T03:24:05.801Z,12.43
2023-01-29T03:28:35.312Z,14.20
2023-01-29T03:32:43.118Z,10.23
2023-01-29T03:36:56.156Z,13.20
2023-01-29T03:41:27.192Z,11.53
2023-01-29T03:45:55.972Z,12.30
2023-01-29T03:50:35.811Z,11.47
2023-01-29T03:55:07.005Z,14.20
2023-01-29T03:59:33.576Z,13.97
2023-01-29T04:03:48.485Z,12.63
2023-01-29T04:08:03.278Z,9.40
2023-01-29T04:12:12.232Z,13.83
2023-01-29T04:16:37.769Z,10.57
2023-01-29T04:20:43.827Z,9.93
2023-01-29T04:24:50.566Z,12.23
2023-01-29T04:29:40.290Z,9.80
2023-01-29T04:34:36.744Z,9.40
2023-01-29T04:38:53.960Z,15.77
2023-01-29T04:43:09.474Z,12.23
2023-01-29T04:47:33.627Z,13.07
2023-01-29T04:52:07.028Z,14.93
2023-01-29T04:56:37.201Z,13.80
2023-01-29T05:00:45.548Z,10.60
2023-01-29T05:04:52.393Z,11.73
2023-01-29T05:08:59.549Z,11.53
2023-01-29T05:13:09.074Z,15.90
2023-01-29T05:17:20.272Z,10.90
2023-01-29T05:21:27.779Z,9.60
2023-01-29T05:25:34.068Z,11.73
2023-01-29T05:29:49.260Z,14.50
2023-01-29T05:33:56.102Z,14.30
2023-01-29T05:38:01.595Z,15.57
2023-01-29T05:42:07.519Z,14.50
2023-01-29T05:46:13.066Z,17.67
2023-01-29T05:50:19.120Z,14.40
2023-01-29T05:54:25.084Z,14.20
2023-01-29T05:58:32.324Z,12.27
2023-01-29T06:02:37.981Z,9.93
2023-01-29T06:06:43.551Z,9.23
2023-01-29T06:10:49.013Z,8.40
2023-01-29T06:14:54.675Z,5.60
2023-01-29T06:19:00.242Z,6.43
2023-01-29T06:23:06.025Z,9.33
2023-01-29T06:27:11.499Z,4.20
2023-01-29T06:31:36.913Z,4.60
2023-01-29T06:35:42.651Z,4.40
2023-01-29T06:39:48.177Z,3.90
2023-01-29T06:43:53.641Z,5.20
2023-01-29T06:48:01.321Z,6.00
2023-01-29T06:52:07.115Z,5.43
2023-01-29T06:56:12.668Z,6.50
2023-01-29T07:00:18.935Z,7.77
2023-01-29T07:04:24.619Z,9.47
2023-01-29T07:08:30.229Z,6.90
2023-01-29T07:12:35.723Z,5.93
2023-01-29T07:16:41.360Z,8.13
2023-01-29T07:20:47.157Z,7.47
2023-01-29T07:24:52.696Z,7.80
2023-01-29T07:28:58.161Z,10.33
2023-01-29T07:33:09.403Z,9.33
2023-01-29T07:37:14.917Z,7.07
2023-01-29T07:41:20.413Z,7.20
2023-01-29T07:45:26.051Z,9.00
2023-01-29T07:49:31.603Z,8.83
2023-01-29T07:53:38.301Z,12.30
2023-01-29T07:57:44.379Z,10.53
2023-01-29T08:01:49.936Z,9.40
2023-01-29T08:05:58.057Z,10.13
2023-01-29T08:10:04.122Z,8.77
2023-01-29T08:14:11.297Z,11.83
2023-01-29T08:18:16.871Z,10.63
2023-01-29T08:22:22.424Z,7.50
2023-01-29T08:26:27.955Z,9.73
2023-01-29T08:30:35.366Z,9.00
2023-01-29T08:34:40.934Z,10.63
2023-01-29T08:38:46.482Z,10.07
2023-01-29T08:42:51.994Z,8.50
2023-01-29T08:46:57.565Z,6.10
2023-01-29T08:51:04.463Z,7.27
2023-01-29T08:55:10.903Z,8.80
2023-01-29T08:59:16.552Z,9.33
2023-01-29T09:03:22.079Z,11.20
2023-01-29T09:07:29.338Z,9.33
2023-01-29T09:11:34.800Z,11.20
2023-01-29T09:15:40.306Z,12.83
2023-01-29T09:19:45.893Z,13.80
2023-01-29T09:23:51.363Z,13.10
2023-01-29T09:27:56.981Z,13.33
2023-01-29T09:32:04.554Z,12.07
2023-01-29T09:36:10.238Z,14.20
2023-01-29T09:40:27.430Z,14.17
2023-01-29T09:45:00.725Z,11.30
2023-01-29T09:49:31.833Z,13.73
2023-01-29T09:53:47.313Z,13.83
2023-01-29T09:57:58.748Z,15.60
2023-01-29T10:02:18.442Z,10.60
2023-01-29T10:06:49.613Z,11.07
2023-01-29T10:11:36.243Z,19.80
2023-01-29T10:15:50.405Z,14.43
2023-01-29T10:20:26.694Z,16.37
2023-01-29T10:25:13.126Z,15.10
2023-01-29T10:29:24.003Z,14.37
2023-01-29T10:33:59.454Z,18.97
2023-01-29T10:38:33.841Z,18.00
2023-01-29T10:43:08.601Z,13.10
2023-01-29T10:47:52.879Z,17.57
2023-01-29T10:52:30.187Z,18.50
2023-01-29T10:57:20.928Z,17.83
2023-01-29T11:01:26.912Z,15.47
2023-01-29T11:06:19.181Z,18.27
2023-01-29T11:10:25.734Z,17.20
2023-01-29T11:14:55.287Z,20.97
2023-01-29T11:19:01.919Z,20.03
2023-01-29T11:23:25.101Z,16.83
2023-01-29T11:27:36.249Z,18.83
2023-01-29T11:31:41.766Z,18.10
2023-01-29T11:35:47.546Z,19.60
2023-01-29T11:39:53.270Z,23.00
2023-01-29T11:44:00.126Z,17.03
2023-01-29T11:48:21.628Z,19.30
2023-01-29T11:52:48.760Z,20.37
2023-01-29T11:56:54.711Z,18.27
2023-01-29T12:01:01.168Z,17.57
2023-01-29T12:05:19.386Z,21.13
2023-01-29T12:09:28.283Z,15.90
2023-01-29T12:13:36.081Z,16.70
2023-01-29T12:17:47.789Z,19.87
2023-01-29T12:22:03.877Z,22.70
2023-01-29T12:26:31.600Z,17.83
2023-01-29T12:30:51.821Z,11.37
2023-01-29T12:35:03.110Z,13.10
2023-01-29T12:39:13.604Z,19.07
2023-01-29T12:43:30.401Z,16.10
2023-01-29T12:47:45.941Z,16.30
2023-01-29T12:52:03.020Z,15.30
2023-01-29T12:56:34.581Z,16.10
2023-01-29T13:00:45.903Z,17.97
2023-01-29T13:05:25.855Z,17.50
2023-01-29T13:09:33.351Z,18.23
2023-01-29T13:13:54.087Z,19.80
2023-01-29T13:18:30.999Z,19.60
2023-01-29T13:22:39.891Z,19.30
2023-01-29T13:26:47.941Z,21.13
2023-01-29T13:31:29.965Z,18.50
2023-01-29T13:35:39.429Z,18.40
2023-01-29T13:39:52.010Z,20.97
2023-01-29T13:43:57.580Z,20.10
2023-01-29T13:48:32.476Z,22.97
2023-01-29T13:52:53.529Z,18.87
2023-01-29T13:57:01.366Z,18.80
2023-01-29T14:01:06.920Z,20.07
2023-01-29T14:19:01.503Z,19.80
2023-01-29T14:23:08.409Z,21.80
2023-01-29T14:27:22.309Z,21.10
2023-01-29T14:32:07.294Z,23.80
2023-01-29T14:36:15.187Z,23.40
2023-01-29T14:40:25.677Z,24.93
2023-01-29T14:44:47.033Z,26.70
2023-01-29T14:48:53.356Z,24.87
2023-01-29T14:53:34.377Z,25.57
2023-01-29T14:57:39.886Z,24.97
2023-01-29T15:01:54.614Z,20.53
2023-01-29T15:06:01.305Z,22.30
2023-01-29T15:10:43.171Z,23.83
2023-01-29T15:15:08.092Z,20.97
2023-01-29T15:19:36.486Z,22.03
2023-01-29T15:23:43.381Z,23.73
2023-01-29T15:27:50.108Z,23.00
2023-01-29T15:31:57.079Z,22.53
2023-01-29T15:36:08.251Z,26.50
2023-01-29T15:40:17.027Z,24.90
2023-01-29T15:44:23.898Z,21.87
2023-01-29T15:48:36.219Z,22.43
2023-01-29T15:52:41.766Z,22.70
2023-01-29T15:56:51.664Z,21.07
2023-01-29T16:00:59.430Z,18.50
2023-01-29T16:05:22.039Z,21.50
2023-01-29T16:09:28.985Z,21.83
2023-01-29T16:13:38.657Z,19.80
2023-01-29T16:17:45.830Z,21.10
2023-01-29T16:21:59.681Z,22.87
2023-01-29T16:26:16.278Z,23.97
2023-01-29T16:30:27.823Z,19.97
2023-01-29T16:34:43.645Z,23.10
2023-01-29T16:38:54.190Z,20.60
2023-01-29T16:43:18.026Z,25.30
2023-01-29T16:47:36.220Z,21.03
2023-01-29T16:51:41.740Z,22.90
2023-01-29T16:55:49.833Z,22.50
2023-01-29T17:00:02.123Z,19.93
2023-01-29T17:04:14.976Z,27.60
2023-01-29T17:08:33.710Z,24.23
2023-01-29T17:12:39.293Z,20.60
2023-01-29T17:16:57.519Z,35.67
2023-01-29T17:21:03.023Z,27.17
2023-01-29T17:25:13.304Z,24.57
2023-01-29T17:29:23.707Z,27.10
2023-01-29T17:33:29.198Z,28.37
2023-01-29T17:37:35.026Z,25.37
2023-01-29T17:41:40.678Z,26.10
2023-01-29T17:45:47.017Z,24.17
2023-01-29T17:49:52.601Z,23.03
2023-01-29T17:53:58.545Z,28.13
2023-01-29T17:58:04.104Z,25.30
2023-01-29T18:02:09.618Z,27.77
2023-01-29T18:06:35.178Z,27.00
2023-01-29T18:10:40.639Z,26.00
2023-01-29T18:14:46.153Z,26.13
2023-01-29T18:18:52.617Z,24.37
2023-01-29T18:22:58.486Z,22.20
2023-01-29T18:27:04.098Z,20.70
2023-01-29T18:31:10.966Z,23.83
2023-01-29T18:35:18.088Z,23.00
2023-01-29T18:39:23.798Z,23.37
2023-01-29T18:43:30.579Z,17.17
2023-01-29T18:47:36.156Z,20.53
2023-01-29T18:51:41.672Z,21.53
2023-01-29T18:55:59.130Z,19.40
2023-01-29T19:00:05.419Z,16.90
2023-01-29T19:04:10.873Z,17.80
2023-01-29T19:08:16.375Z,20.37
2023-01-29T19:12:23.211Z,19.00
2023-01-29T19:16:28.685Z,16.93
2023-01-29T19:20:34.151Z,20.30
2023-01-29T19:24:39.701Z,15.03
2023-01-29T19:28:45.212Z,22.80
2023-01-29T19:32:50.720Z,18.47
2023-01-29T19:36:56.195Z,17.87
2023-01-29T19:41:01.788Z,17.97
2023-01-29T19:45:08.449Z,9.60
2023-01-29T19:49:14.142Z,22.60
2023-01-29T19:53:19.702Z,21.80
2023-01-29T19:57:25.188Z,22.07
2023-01-29T20:01:30.867Z,21.17
2023-01-29T20:05:37.576Z,25.40
2023-01-29T20:09:43.098Z,28.03
2023-01-29T20:13:51.478Z,26.23
2023-01-29T20:18:00.066Z,26.67
2023-01-29T20:22:05.746Z,27.33
2023-01-29T20:26:15.501Z,30.53
2023-01-29T20:30:21.624Z,28.50
2023-01-29T20:34:33.752Z,33.63
2023-01-29T20:38:39.538Z,32.37
2023-01-29T20:42:45.156Z,36.47
2023-01-29T20:46:50.836Z,36.50
2023-01-29T20:50:57.011Z,37.60
2023-01-29T20:55:04.448Z,30.87
2023-01-29T20:59:10.264Z,32.70
2023-01-29T21:03:15.750Z,32.50
2023-01-29T21:07:21.212Z,38.73
2023-01-29T21:11:26.829Z,34.47
2023-01-29T21:15:32.320Z,37.13
2023-01-29T21:19:37.889Z,44.23
2023-01-29T21:23:43.400Z,47.17
2023-01-29T21:27:49.753Z,40.77
2023-01-29T21:31:55.249Z,46.67
2023-01-29T21:36:01.715Z,31.80
2023-01-29T21:40:09.023Z,43.20
2023-01-29T21:44:15.658Z,39.90
2023-01-29T21:48:21.227Z,48.07
2023-01-29T21:52:26.891Z,38.20
2023-01-29T21:56:32.408Z,38.07
2023-01-29T22:00:38.412Z,43.97
2023-01-29T22:04:43.921Z,40.20
2023-01-29T22:08:50.643Z,41.87
2023-01-29T22:12:56.570Z,38.63
2023-01-29T22:17:02.333Z,43.97
2023-01-29T22:21:07.883Z,37.13
2023-01-29T22:25:13.492Z,40.30
2023-01-29T22:29:19.622Z,43.73
2023-01-29T22:33:25.472Z,36.73
2023-01-29T22:37:31.073Z,45.63
2023-01-29T22:41:36.926Z,37.30
2023-01-29T22:45:42.451Z,41.93
2023-01-29T22:49:50.093Z,33.10
2023-01-29T22:53:58.135Z,31.30
2023-01-29T22:58:03.624Z,27.13
2023-01-29T23:02:09.532Z,27.70
2023-01-29T23:06:16.487Z,28.60
2023-01-29T23:10:22.035Z,26.87
2023-01-29T23:14:27.597Z,27.07
2023-01-29T23:18:33.065Z,27.93
2023-01-29T23:22:38.566Z,26.60
2023-01-29T23:27:03.274Z,30.07
2023-01-29T23:31:08.849Z,22.40
2023-01-29T23:35:14.371Z,27.13
2023-01-29T23:39:20.493Z,25.87
2023-01-29T23:43:27.903Z,25.63
2023-01-29T23:47:33.486Z,19.90
2023-01-29T23:51:38.984Z,25.37
2023-01-29T23:55:44.862Z,22.47
2023-01-29T23:59:50.327Z,25.50
